createdAt,value
2022-12-08T00:01:20.564Z,1.11
2022-12-08T00:03:47.514Z,1.14
2022-12-08T00:06:49.044Z,1.19
2022-12-08T00:09:41.943Z,1.10
2022-12-08T00:12:17.621Z,1.18
2022-12-08T00:14:47.628Z,1.15
2022-12-08T00:17:16.330Z,1.14
2022-12-08T00:19:44.188Z,1.31
2022-12-08T00:22:12.912Z,1.24
2022-12-08T00:24:40.864Z,1.32
2022-12-08T00:27:09.813Z,1.31
2022-12-08T00:29:36.645Z,1.26
2022-12-08T00:32:03.846Z,1.16
2022-12-08T00:34:31.913Z,1.18
2022-12-08T00:36:58.718Z,1.15
2022-12-08T00:39:25.418Z,1.07
2022-12-08T00:42:10.946Z,1.06
2022-12-08T00:44:37.658Z,1.07
2022-12-08T00:47:04.907Z,1.02
2022-12-08T00:49:31.599Z,1.02
2022-12-08T00:51:58.371Z,0.82
2022-12-08T00:54:25.253Z,0.83
2022-12-08T00:56:52.085Z,0.70
2022-12-08T00:59:19.177Z,0.61
2022-12-08T01:01:46.818Z,0.88
2022-12-08T01:04:16.160Z,0.86
2022-12-08T01:06:45.816Z,0.53
2022-12-08T01:09:14.620Z,0.83
2022-12-08T01:11:41.565Z,0.69
2022-12-08T01:14:08.286Z,0.78
2022-12-08T01:16:37.241Z,0.85
2022-12-08T01:19:04.859Z,0.70
2022-12-08T01:21:31.733Z,0.76
2022-12-08T01:24:00.189Z,0.79
2022-12-08T01:26:27.141Z,0.81
2022-12-08T01:28:54.079Z,0.75
2022-12-08T01:31:22.184Z,0.77
2022-12-08T01:33:49.759Z,0.75
2022-12-08T01:36:28.149Z,0.68
2022-12-08T01:38:57.923Z,0.80
2022-12-08T01:41:27.906Z,0.76
2022-12-08T01:44:02.023Z,0.82
2022-12-08T01:46:31.524Z,0.68
2022-12-08T01:49:05.552Z,0.71
2022-12-08T01:51:38.892Z,0.88
2022-12-08T01:54:07.358Z,0.92
2022-12-08T01:56:54.159Z,0.86
2022-12-08T01:59:21.397Z,0.79
2022-12-08T02:01:48.185Z,0.88
2022-12-08T02:04:14.926Z,0.88
2022-12-08T02:06:44.959Z,0.88
2022-12-08T02:09:13.398Z,0.81
2022-12-08T02:11:40.114Z,0.97
2022-12-08T02:14:12.254Z,1.03
2022-12-08T02:17:20.123Z,1.11
2022-12-08T02:20:01.993Z,1.13
2022-12-08T02:22:44.157Z,1.17
2022-12-08T02:25:45.045Z,1.16
2022-12-08T02:28:45.325Z,1.27
2022-12-08T02:31:33.251Z,1.36
2022-12-08T02:34:09.178Z,1.40
2022-12-08T02:36:41.894Z,1.47
2022-12-08T02:39:29.384Z,1.40
2022-12-08T02:42:20.553Z,1.59
2022-12-08T02:44:59.656Z,1.46
2022-12-08T02:47:28.400Z,1.57
2022-12-08T02:49:56.656Z,1.61
2022-12-08T02:52:23.245Z,1.72
2022-12-08T02:55:07.122Z,1.69
2022-12-08T02:57:45.659Z,1.74
2022-12-08T03:00:18.831Z,1.76
2022-12-08T03:03:06.848Z,1.77
2022-12-08T03:06:01.564Z,1.82
2022-12-08T03:08:51.396Z,1.90
2022-12-08T03:11:47.140Z,1.95
2022-12-08T03:14:18.057Z,1.90
2022-12-08T03:16:48.947Z,1.92
2022-12-08T03:19:23.661Z,1.91
2022-12-08T03:21:53.171Z,1.90
2022-12-08T03:24:23.302Z,1.85
2022-12-08T03:27:02.678Z,2.05
2022-12-08T03:29:32.947Z,1.95
2022-12-08T03:32:35.102Z,2.07
2022-12-08T03:35:07.133Z,2.03
2022-12-08T03:37:36.849Z,1.64
2022-12-08T03:40:06.174Z,1.95
2022-12-08T03:42:33.070Z,2.01
2022-12-08T03:44:59.895Z,2.05
2022-12-08T03:47:26.623Z,1.95
2022-12-08T03:49:54.300Z,1.93
2022-12-08T03:52:21.143Z,2.07
2022-12-08T03:54:48.357Z,2.14
2022-12-08T03:57:15.023Z,1.84
2022-12-08T03:59:41.809Z,2.04
2022-12-08T04:02:08.485Z,1.94
2022-12-08T04:04:35.211Z,2.12
2022-12-08T04:07:01.968Z,1.91
2022-12-08T04:09:28.601Z,1.83
2022-12-08T04:11:55.327Z,2.04
2022-12-08T04:14:25.932Z,1.99
2022-12-08T04:16:52.640Z,1.97
2022-12-08T04:19:19.869Z,2.04
2022-12-08T04:21:46.611Z,2.03
2022-12-08T04:24:13.255Z,1.97
2022-12-08T04:26:39.887Z,2.04
2022-12-08T04:29:06.629Z,2.06
2022-12-08T04:31:33.380Z,2.17
2022-12-08T04:34:00.177Z,2.16
2022-12-08T04:36:26.976Z,2.26
2022-12-08T04:38:54.102Z,2.12
2022-12-08T04:41:21.207Z,2.26
2022-12-08T04:43:48.023Z,2.16
2022-12-08T04:46:14.700Z,2.01
2022-12-08T04:48:41.634Z,2.21
2022-12-08T04:51:21.662Z,2.23
2022-12-08T04:53:48.466Z,2.28
2022-12-08T04:56:18.047Z,2.27
2022-12-08T04:58:45.772Z,2.26
2022-12-08T05:01:13.444Z,2.26
2022-12-08T05:03:40.159Z,2.26
2022-12-08T05:06:07.562Z,2.25
2022-12-08T05:08:35.112Z,2.33
2022-12-08T05:11:04.325Z,2.25
2022-12-08T05:13:31.589Z,2.31
2022-12-08T05:16:10.704Z,2.28
2022-12-08T05:18:37.986Z,2.25
2022-12-08T05:21:07.001Z,2.26
2022-12-08T05:23:34.367Z,2.31
2022-12-08T05:26:01.578Z,2.23
2022-12-08T05:28:44.286Z,2.22
2022-12-08T05:31:13.234Z,2.28
2022-12-08T05:33:40.678Z,2.32
2022-12-08T05:36:08.536Z,2.39
2022-12-08T05:38:35.583Z,2.35
2022-12-08T05:41:02.730Z,2.31
2022-12-08T05:43:29.544Z,2.31
2022-12-08T05:45:56.626Z,2.26
2022-12-08T05:48:23.355Z,2.30
2022-12-08T05:50:51.225Z,2.28
2022-12-08T05:53:20.331Z,2.36
2022-12-08T05:55:47.936Z,2.30
2022-12-08T05:58:19.907Z,2.34
2022-12-08T06:00:47.727Z,2.26
2022-12-08T06:03:16.444Z,2.10
2022-12-08T06:05:45.021Z,2.23
2022-12-08T06:08:12.580Z,2.18
2022-12-08T06:10:44.316Z,2.19
2022-12-08T06:13:11.472Z,2.28
2022-12-08T06:15:39.353Z,2.25
2022-12-08T06:18:06.923Z,2.23
2022-12-08T06:20:35.054Z,2.29
2022-12-08T06:23:02.207Z,2.22
2022-12-08T06:25:29.044Z,2.33
2022-12-08T06:27:55.768Z,2.21
2022-12-08T06:30:22.559Z,2.23
2022-12-08T06:32:51.670Z,2.20
2022-12-08T06:35:18.405Z,2.32
2022-12-08T06:37:45.056Z,2.32
2022-12-08T06:40:12.191Z,2.38
2022-12-08T06:42:45.216Z,2.32
2022-12-08T06:45:13.996Z,2.35
2022-12-08T06:47:40.861Z,2.33
2022-12-08T06:50:09.083Z,2.28
2022-12-08T06:52:40.845Z,2.31
2022-12-08T06:55:29.127Z,2.34
2022-12-08T06:57:59.526Z,2.36
2022-12-08T07:00:26.237Z,2.34
2022-12-08T07:02:52.937Z,2.34
2022-12-08T07:05:19.860Z,2.25
2022-12-08T07:07:46.718Z,2.19
2022-12-08T07:10:13.372Z,2.40
2022-12-08T07:12:39.999Z,2.29
2022-12-08T07:15:07.446Z,2.30
2022-12-08T07:17:34.059Z,2.35
2022-12-08T07:20:00.727Z,2.40
2022-12-08T07:22:27.489Z,2.28
2022-12-08T07:24:54.146Z,2.18
2022-12-08T07:27:20.754Z,2.26
2022-12-08T07:29:47.511Z,2.29
2022-12-08T07:32:15.761Z,2.35
2022-12-08T07:35:00.168Z,2.24
2022-12-08T07:37:26.808Z,1.82
2022-12-08T07:39:53.523Z,2.46
2022-12-08T07:42:20.132Z,2.42
2022-12-08T07:44:46.744Z,2.43
2022-12-08T07:47:13.410Z,2.12
2022-12-08T07:49:40.048Z,2.30
2022-12-08T07:52:06.816Z,2.29
2022-12-08T07:54:33.585Z,2.39
2022-12-08T07:57:00.271Z,2.33
2022-12-08T07:59:26.901Z,2.26
2022-12-08T08:02:21.035Z,2.29
2022-12-08T08:04:40.381Z,2.45
2022-12-08T08:07:07.121Z,2.37
2022-12-08T08:09:34.364Z,2.27
2022-12-08T08:12:29.639Z,2.40
2022-12-08T08:14:47.728Z,2.36
2022-12-08T08:17:14.453Z,2.32
2022-12-08T08:19:41.155Z,2.40
2022-12-08T08:22:07.898Z,2.29
2022-12-08T08:24:34.726Z,2.41
2022-12-08T08:27:01.358Z,2.41
2022-12-08T08:29:28.090Z,2.30
2022-12-08T08:31:54.898Z,2.27
2022-12-08T08:34:21.512Z,2.29
2022-12-08T08:36:48.325Z,2.39
2022-12-08T08:39:15.963Z,2.42
2022-12-08T08:41:42.684Z,2.38
2022-12-08T08:44:09.387Z,2.39
2022-12-08T08:46:36.222Z,2.26
2022-12-08T08:49:02.993Z,2.32
2022-12-08T08:51:29.840Z,2.41
2022-12-08T08:53:57.250Z,2.19
2022-12-08T08:56:24.314Z,2.34
2022-12-08T08:58:52.855Z,2.32
2022-12-08T09:01:22.226Z,2.48
2022-12-08T09:03:49.468Z,2.40
2022-12-08T09:06:17.175Z,2.40
2022-12-08T09:08:44.297Z,2.51
2022-12-08T09:11:12.167Z,2.52
2022-12-08T09:13:41.078Z,1.80
2022-12-08T09:16:09.158Z,2.09
2022-12-08T09:18:35.943Z,1.95
2022-12-08T09:21:08.334Z,1.84
2022-12-08T09:23:36.034Z,2.49
2022-12-08T09:26:05.122Z,2.31
2022-12-08T09:28:33.097Z,2.54
2022-12-08T09:31:00.277Z,2.50
2022-12-08T09:33:27.168Z,2.48
2022-12-08T09:35:53.994Z,2.54
2022-12-08T09:38:20.599Z,2.47
2022-12-08T09:40:53.045Z,2.38
2022-12-08T09:43:42.692Z,2.56
2022-12-08T09:46:11.594Z,2.56
2022-12-08T09:48:44.577Z,2.56
2022-12-08T09:51:13.684Z,2.54
2022-12-08T09:53:49.219Z,2.51
2022-12-08T09:56:19.705Z,2.66
2022-12-08T09:59:24.586Z,2.66
2022-12-08T10:01:51.543Z,2.63
2022-12-08T10:04:23.323Z,2.74
2022-12-08T10:06:59.995Z,2.74
2022-12-08T10:09:48.579Z,2.63
2022-12-08T10:12:21.418Z,2.81
2022-12-08T10:14:55.340Z,2.75
2022-12-08T10:17:40.668Z,2.69
2022-12-08T10:20:20.110Z,2.78
2022-12-08T10:22:53.427Z,2.70
2022-12-08T10:25:28.228Z,2.81
2022-12-08T10:28:01.072Z,2.58
2022-12-08T10:30:27.707Z,2.64
2022-12-08T10:32:55.109Z,2.87
2022-12-08T10:35:23.513Z,2.89
2022-12-08T10:38:01.910Z,2.90
2022-12-08T10:40:40.515Z,2.86
2022-12-08T10:43:17.497Z,2.86
2022-12-08T10:45:45.234Z,2.90
2022-12-08T10:48:17.281Z,2.88
2022-12-08T10:50:47.591Z,2.93
2022-12-08T10:53:21.274Z,2.83
2022-12-08T10:55:51.181Z,2.87
2022-12-08T10:58:44.335Z,2.87
2022-12-08T11:01:21.741Z,2.95
2022-12-08T11:03:57.018Z,2.95
2022-12-08T11:06:32.945Z,2.81
2022-12-08T11:09:01.413Z,2.96
2022-12-08T11:11:48.387Z,3.03
2022-12-08T11:14:27.830Z,2.98
2022-12-08T11:17:09.586Z,3.01
2022-12-08T11:19:55.069Z,2.97
2022-12-08T11:22:33.534Z,2.91
2022-12-08T11:25:12.363Z,2.87
2022-12-08T11:27:43.714Z,2.92
2022-12-08T11:30:22.263Z,2.85
2022-12-08T11:32:57.579Z,2.88
2022-12-08T11:35:28.939Z,2.79
2022-12-08T11:38:19.780Z,2.89
2022-12-08T11:40:51.915Z,2.82
2022-12-08T11:43:37.048Z,2.86
2022-12-08T11:46:12.500Z,2.91
2022-12-08T11:48:51.214Z,2.89
2022-12-08T11:51:38.100Z,2.92
2022-12-08T11:54:36.100Z,2.93
2022-12-08T11:57:06.048Z,2.93
2022-12-08T11:59:38.488Z,3.03
2022-12-08T12:02:12.232Z,2.99
2022-12-08T12:05:09.336Z,3.00
2022-12-08T12:08:01.106Z,2.93
2022-12-08T12:11:00.267Z,2.98
2022-12-08T12:13:35.734Z,2.96
2022-12-08T12:16:17.734Z,2.98
2022-12-08T12:18:47.835Z,3.00
2022-12-08T12:21:20.104Z,3.02
2022-12-08T12:23:53.717Z,3.05
2022-12-08T12:26:26.624Z,2.93
2022-12-08T12:28:57.544Z,3.15
2022-12-08T12:31:43.490Z,3.16
2022-12-08T12:34:36.605Z,3.16
2022-12-08T12:37:15.151Z,3.16
2022-12-08T12:39:57.924Z,3.16
2022-12-08T12:42:50.971Z,3.19
2022-12-08T12:45:17.565Z,3.22
2022-12-08T12:47:48.627Z,3.13
2022-12-08T12:50:34.321Z,3.21
2022-12-08T12:53:09.185Z,3.24
2022-12-08T12:56:02.488Z,3.24
2022-12-08T12:58:29.638Z,3.22
2022-12-08T13:01:14.263Z,3.21
2022-12-08T13:03:44.126Z,3.16
2022-12-08T13:06:14.750Z,3.12
2022-12-08T13:08:51.243Z,3.12
2022-12-08T13:11:18.027Z,3.07
2022-12-08T13:13:57.848Z,3.12
2022-12-08T13:16:27.223Z,3.13
2022-12-08T13:18:59.139Z,3.04
2022-12-08T13:21:36.034Z,3.07
2022-12-08T13:24:14.717Z,3.03
2022-12-08T13:26:49.282Z,3.04
2022-12-08T13:29:25.661Z,3.10
2022-12-08T13:31:56.333Z,3.09
2022-12-08T13:34:49.182Z,3.07
2022-12-08T13:37:26.939Z,3.06
2022-12-08T13:40:09.090Z,3.08
2022-12-08T13:42:35.848Z,3.09
2022-12-08T13:45:27.886Z,3.06
2022-12-08T13:48:58.989Z,3.06
2022-12-08T13:57:06.870Z,2.94
2022-12-08T13:59:36.171Z,2.96
2022-12-08T14:02:18.252Z,2.84
2022-12-08T14:07:38.967Z,2.91
2022-12-08T14:10:14.783Z,2.92
2022-12-08T14:12:46.223Z,2.86
2022-12-08T14:15:15.609Z,2.87
2022-12-08T14:17:51.360Z,2.67
2022-12-08T14:20:31.609Z,2.83
2022-12-08T14:22:59.852Z,2.75
2022-12-08T14:25:30.205Z,2.70
2022-12-08T14:28:01.916Z,2.63
2022-12-08T14:30:32.746Z,2.53
2022-12-08T14:33:01.279Z,2.50
2022-12-08T14:35:28.002Z,2.59
2022-12-08T14:37:58.823Z,2.54
2022-12-08T14:40:36.763Z,2.31
2022-12-08T14:43:09.309Z,2.45
2022-12-08T14:45:41.686Z,2.39
2022-12-08T14:48:36.409Z,2.36
2022-12-08T14:51:12.634Z,2.34
2022-12-08T14:53:58.837Z,2.30
2022-12-08T14:56:25.639Z,2.28
2022-12-08T14:59:15.348Z,2.20
2022-12-08T15:01:43.938Z,2.11
2022-12-08T15:04:25.781Z,2.13
2022-12-08T15:07:05.557Z,1.89
2022-12-08T15:09:37.629Z,1.83
2022-12-08T15:12:27.093Z,1.94
2022-12-08T15:15:09.635Z,1.93
2022-12-08T15:17:45.059Z,1.81
2022-12-08T15:20:39.214Z,1.70
2022-12-08T15:23:06.773Z,1.59
2022-12-08T15:25:33.608Z,1.52
2022-12-08T15:28:02.643Z,1.41
2022-12-08T15:30:30.005Z,1.35
2022-12-08T15:32:57.655Z,1.21
2022-12-08T15:35:24.291Z,1.15
2022-12-08T15:37:51.094Z,0.95
2022-12-08T15:40:20.012Z,0.90
2022-12-08T15:42:47.051Z,0.85
2022-12-08T15:45:15.412Z,0.89
2022-12-08T15:47:43.464Z,0.75
2022-12-08T15:50:18.658Z,0.74
2022-12-08T15:52:45.444Z,0.55
2022-12-08T15:55:14.076Z,0.48
2022-12-08T15:58:44.555Z,0.43
2022-12-08T16:04:19.948Z,0.15
2022-12-08T16:09:13.463Z,0.02
2022-12-08T16:12:08.412Z,-0.14
2022-12-08T16:17:24.195Z,-0.16
2022-12-08T16:19:53.551Z,-0.17
2022-12-08T16:25:20.344Z,-0.36
2022-12-08T16:28:12.565Z,-0.42
2022-12-08T16:30:40.557Z,-0.53
2022-12-08T16:33:07.392Z,-0.57
2022-12-08T16:35:34.155Z,-0.58
2022-12-08T16:38:01.130Z,-0.43
2022-12-08T16:40:31.213Z,-0.26
2022-12-08T16:42:58.615Z,-0.37
2022-12-08T16:45:31.038Z,0.06
2022-12-08T16:48:01.830Z,0.13
2022-12-08T16:50:31.272Z,0.28
2022-12-08T16:53:04.768Z,0.29
2022-12-08T16:55:31.780Z,0.33
2022-12-08T16:57:58.640Z,0.31
2022-12-08T17:00:28.552Z,0.20
2022-12-08T17:02:55.946Z,0.01
2022-12-08T17:05:25.070Z,0.04
2022-12-08T17:07:53.625Z,-0.05
2022-12-08T17:10:23.597Z,-0.09
2022-12-08T17:12:50.420Z,-0.19
2022-12-08T17:15:19.801Z,-0.29
2022-12-08T17:17:47.069Z,-0.35
2022-12-08T17:20:19.464Z,-0.89
2022-12-08T17:22:46.452Z,-0.46
2022-12-08T17:25:13.649Z,-0.17
2022-12-08T17:27:40.908Z,-0.03
2022-12-08T17:30:09.922Z,0.01
2022-12-08T17:32:38.073Z,0.06
2022-12-08T17:35:05.781Z,0.11
2022-12-08T17:37:32.834Z,0.08
2022-12-08T17:39:59.655Z,0.18
2022-12-08T17:42:27.324Z,0.29
2022-12-08T17:44:54.943Z,0.40
2022-12-08T17:47:22.278Z,0.44
2022-12-08T17:49:49.053Z,0.49
2022-12-08T17:52:15.782Z,0.59
2022-12-08T17:54:42.576Z,0.61
2022-12-08T17:57:09.251Z,0.58
2022-12-08T17:59:35.937Z,0.63
2022-12-08T18:02:05.054Z,0.49
2022-12-08T18:04:31.843Z,0.60
2022-12-08T18:07:03.924Z,0.58
2022-12-08T18:09:31.438Z,0.44
2022-12-08T18:11:58.247Z,0.53
2022-12-08T18:14:24.937Z,0.57
2022-12-08T18:16:51.958Z,0.46
2022-12-08T18:19:18.754Z,0.50
2022-12-08T18:21:45.483Z,0.53
2022-12-08T18:24:19.364Z,0.71
2022-12-08T18:26:47.228Z,0.69
2022-12-08T18:29:13.885Z,0.68
2022-12-08T18:31:40.613Z,0.72
2022-12-08T18:34:07.269Z,0.71
2022-12-08T18:36:34.053Z,0.69
2022-12-08T18:39:05.834Z,0.86
2022-12-08T18:41:35.564Z,0.73
2022-12-08T18:44:02.424Z,0.90
2022-12-08T18:46:29.700Z,0.93
2022-12-08T18:48:56.384Z,0.91
2022-12-08T18:51:24.483Z,1.05
2022-12-08T18:53:52.309Z,1.02
2022-12-08T18:56:23.881Z,1.08
2022-12-08T18:58:50.612Z,1.00
2022-12-08T19:01:17.716Z,0.95
2022-12-08T19:03:58.507Z,1.13
2022-12-08T19:06:31.625Z,1.15
2022-12-08T19:08:58.700Z,1.03
2022-12-08T19:11:27.683Z,1.11
2022-12-08T19:13:55.690Z,1.26
2022-12-08T19:16:26.095Z,1.29
2022-12-08T19:18:53.424Z,1.05
2022-12-08T19:21:22.561Z,0.54
2022-12-08T19:23:49.509Z,0.89
2022-12-08T19:26:26.840Z,1.08
2022-12-08T19:28:58.141Z,1.32
2022-12-08T19:34:14.170Z,1.32
2022-12-08T19:36:59.072Z,0.92
2022-12-08T19:39:46.382Z,1.29
2022-12-08T19:42:41.317Z,1.04
2022-12-08T19:45:26.272Z,1.04
2022-12-08T19:47:59.313Z,1.03
2022-12-08T19:50:40.959Z,0.87
2022-12-08T19:53:14.848Z,0.48
2022-12-08T19:55:48.982Z,0.92
2022-12-08T19:58:15.967Z,0.79
2022-12-08T20:00:46.801Z,0.91
2022-12-08T20:03:19.947Z,0.40
2022-12-08T20:05:57.512Z,0.79
2022-12-08T20:08:24.839Z,0.81
2022-12-08T20:10:59.496Z,0.77
2022-12-08T20:13:42.094Z,0.70
2022-12-08T20:16:10.056Z,0.71
2022-12-08T20:18:48.431Z,1.04
2022-12-08T20:21:23.344Z,0.53
2022-12-08T20:23:50.548Z,0.38
2022-12-08T20:26:23.965Z,1.10
2022-12-08T20:28:51.216Z,0.81
2022-12-08T20:31:26.824Z,0.73
2022-12-08T20:34:05.799Z,1.13
2022-12-08T20:36:32.978Z,0.87
2022-12-08T20:38:59.726Z,0.77
2022-12-08T20:41:27.578Z,1.20
2022-12-08T20:43:54.552Z,0.93
2022-12-08T20:46:25.166Z,0.79
2022-12-08T20:48:52.765Z,1.16
2022-12-08T20:51:19.953Z,1.26
2022-12-08T20:53:47.551Z,1.20
2022-12-08T20:56:18.965Z,1.20
2022-12-08T20:58:46.162Z,1.25
2022-12-08T21:01:15.745Z,1.26
2022-12-08T21:03:44.820Z,1.28
2022-12-08T21:06:12.771Z,1.25
2022-12-08T21:08:40.317Z,1.28
2022-12-08T21:11:08.040Z,1.25
2022-12-08T21:13:37.161Z,1.16
2022-12-08T21:16:04.934Z,1.25
2022-12-08T21:18:38.928Z,1.16
2022-12-08T21:21:12.743Z,1.20
2022-12-08T21:23:40.527Z,1.16
2022-12-08T21:26:15.594Z,1.13
2022-12-08T21:28:43.265Z,1.13
2022-12-08T21:31:12.535Z,1.14
2022-12-08T21:33:39.707Z,1.11
2022-12-08T21:36:09.789Z,1.16
2022-12-08T21:38:37.821Z,1.13
2022-12-08T21:41:16.139Z,1.16
2022-12-08T21:43:43.731Z,1.11
2022-12-08T21:46:19.480Z,1.07
2022-12-08T21:48:46.533Z,1.09
2022-12-08T21:51:13.294Z,1.17
2022-12-08T21:53:40.167Z,1.15
2022-12-08T21:56:10.285Z,1.20
2022-12-08T21:58:37.290Z,1.21
2022-12-08T22:01:08.846Z,1.09
2022-12-08T22:03:36.475Z,1.04
2022-12-08T22:06:11.522Z,0.89
2022-12-08T22:08:39.646Z,0.79
2022-12-08T22:11:08.108Z,0.66
2022-12-08T22:13:36.726Z,0.66
2022-12-08T22:16:06.188Z,0.67
2022-12-08T22:18:34.034Z,0.64
2022-12-08T22:21:01.250Z,0.68
2022-12-08T22:23:28.983Z,0.68
2022-12-08T22:26:00.072Z,0.86
2022-12-08T22:28:31.849Z,0.72
2022-12-08T22:30:58.735Z,0.93
2022-12-08T22:33:25.624Z,1.03
2022-12-08T22:36:03.515Z,1.04
2022-12-08T22:38:35.141Z,1.07
2022-12-08T22:41:04.997Z,1.03
2022-12-08T22:43:31.915Z,0.93
2022-12-08T22:45:58.858Z,1.11
2022-12-08T22:48:26.769Z,1.06
2022-12-08T22:50:59.759Z,1.16
2022-12-08T22:53:26.876Z,1.17
2022-12-08T22:55:53.792Z,1.23
2022-12-08T22:58:20.568Z,1.23
2022-12-08T23:00:47.829Z,1.17
2022-12-08T23:03:14.598Z,1.17
2022-12-08T23:05:41.628Z,1.22
2022-12-08T23:08:09.371Z,1.17
2022-12-08T23:10:36.341Z,1.13
2022-12-08T23:13:04.209Z,1.22
2022-12-08T23:15:31.616Z,1.19
2022-12-08T23:17:58.714Z,1.26
2022-12-08T23:20:25.786Z,1.25
2022-12-08T23:22:52.636Z,1.23
2022-12-08T23:25:19.485Z,1.26
2022-12-08T23:27:46.538Z,1.27
2022-12-08T23:30:14.155Z,1.30
2022-12-08T23:32:41.673Z,1.24
2022-12-08T23:35:09.041Z,1.30
2022-12-08T23:37:35.853Z,1.31
2022-12-08T23:40:03.045Z,1.20
2022-12-08T23:42:30.593Z,1.22
2022-12-08T23:44:57.541Z,1.22
2022-12-08T23:47:24.369Z,1.17
2022-12-08T23:49:51.183Z,1.14
2022-12-08T23:52:18.176Z,1.17
2022-12-08T23:54:45.140Z,1.17
2022-12-08T23:57:11.950Z,1.16
2022-12-08T23:59:39.122Z,1.25
